Terminal Aerodrome Forecast
Issued by NWS Wakefield, VA

Home | Current Version | Previous Version | Text Only | Print | Product List | Glossary On
Versions: 1 2 3 4 5 6 7 8 9 10 11 12 13 14 15 16 17 18 19
000
FTUS41 KAKQ 301720
TAFSBY
TAF
KSBY 301720Z 3018/3118 20010KT P6SM SCT035 BKN150
      TEMPO 3021/3024 VRB25KT 3SM TSRA BR BKN035CB
     FM310200 19007KT P6SM BKN050 OVC100
     FM310900 32003KT 4SM BR BKN150
     FM311200 35005KT P6SM SKC=

USA.gov is the U.S. government's official web portal to all federal, state and local government web resources and services.